createdAt,value
2023-03-06T00:01:53.269Z,38.17
2023-03-06T00:05:53.450Z,38.20
2023-03-06T00:09:53.447Z,41.16
2023-03-06T00:13:53.536Z,41.19
2023-03-06T00:17:53.512Z,40.77
2023-03-06T00:21:53.545Z,38.41
2023-03-06T00:25:53.540Z,40.06
2023-03-06T00:29:53.561Z,41.35
2023-03-06T00:33:53.591Z,39.42
2023-03-06T00:37:53.617Z,40.26
2023-03-06T00:41:53.585Z,40.00
2023-03-06T00:45:53.674Z,39.85
2023-03-06T00:49:53.632Z,40.63
2023-03-06T00:53:53.670Z,41.36
2023-03-06T00:57:53.648Z,39.26
2023-03-06T01:01:53.699Z,43.41
2023-03-06T01:05:53.614Z,39.02
2023-03-06T01:09:53.557Z,41.75
2023-03-06T01:13:53.526Z,42.74
2023-03-06T01:17:53.487Z,41.31
2023-03-06T01:21:53.444Z,42.33
2023-03-06T01:25:53.400Z,42.83
2023-03-06T01:29:53.354Z,41.18
2023-03-06T01:33:53.326Z,39.68
2023-03-06T01:37:53.335Z,41.99
2023-03-06T01:41:53.251Z,40.96
2023-03-06T01:45:53.254Z,40.34
2023-03-06T01:49:53.196Z,41.96
2023-03-06T01:53:53.223Z,45.18
2023-03-06T01:57:53.242Z,40.71
2023-03-06T02:01:53.320Z,42.98
2023-03-06T02:05:53.345Z,42.67
2023-03-06T02:09:53.463Z,40.27
2023-03-06T02:13:53.395Z,41.45
2023-03-06T02:17:53.361Z,42.92
2023-03-06T02:21:53.337Z,44.14
2023-03-06T02:25:53.286Z,42.82
2023-03-06T02:29:53.232Z,42.54
2023-03-06T02:33:53.211Z,41.16
2023-03-06T02:37:53.173Z,43.20
2023-03-06T02:41:53.138Z,43.79
2023-03-06T02:45:53.159Z,44.32
2023-03-06T02:49:53.065Z,45.67
2023-03-06T02:53:53.036Z,42.62
2023-03-06T02:57:52.979Z,41.49
2023-03-06T03:01:53.050Z,43.54
2023-03-06T03:05:52.933Z,41.89
2023-03-06T03:09:52.840Z,43.49
2023-03-06T03:13:52.861Z,41.66
2023-03-06T03:17:52.799Z,45.67
2023-03-06T03:21:52.788Z,42.65
2023-03-06T03:25:52.732Z,44.96
2023-03-06T03:29:52.696Z,41.67
2023-03-06T03:33:52.675Z,44.87
2023-03-06T03:37:52.773Z,42.40
2023-03-06T03:41:52.878Z,42.59
2023-03-06T03:45:52.975Z,44.60
2023-03-06T03:49:53.038Z,44.14
2023-03-06T03:53:53.138Z,42.27
2023-03-06T03:57:53.262Z,45.44
2023-03-06T04:01:53.412Z,45.23
2023-03-06T04:05:53.499Z,41.40
2023-03-06T04:09:53.550Z,43.73
2023-03-06T04:13:53.629Z,42.29
2023-03-06T04:17:53.759Z,43.67
2023-03-06T04:21:53.865Z,44.27
2023-03-06T04:25:53.953Z,43.17
2023-03-06T04:29:54.084Z,41.04
2023-03-06T04:33:54.207Z,41.02
2023-03-06T04:37:54.322Z,44.88
2023-03-06T04:41:54.436Z,43.99
2023-03-06T04:45:54.569Z,41.33
2023-03-06T04:49:54.774Z,42.21
2023-03-06T04:53:54.745Z,45.42
2023-03-06T04:57:54.910Z,44.46
2023-03-06T05:01:55.057Z,44.85
2023-03-06T05:05:55.159Z,31.98
2023-03-06T05:09:55.280Z,29.35
2023-03-06T05:13:55.366Z,25.00
2023-03-06T05:17:55.471Z,26.79
2023-03-06T05:21:55.559Z,25.93
2023-03-06T05:25:55.648Z,26.52
2023-03-06T05:29:55.808Z,27.90
2023-03-06T05:33:55.936Z,25.77
2023-03-06T05:37:56.098Z,27.40
2023-03-06T05:41:56.215Z,29.34
2023-03-06T05:45:56.425Z,30.97
2023-03-06T05:49:56.523Z,29.82
2023-03-06T05:53:56.698Z,31.23
2023-03-06T05:57:56.791Z,32.79
2023-03-06T06:01:57.042Z,31.40
2023-03-06T06:05:57.087Z,33.72
2023-03-06T06:09:57.215Z,36.05
2023-03-06T06:13:57.365Z,34.44
2023-03-06T06:17:57.525Z,30.45
2023-03-06T06:21:57.572Z,33.42
2023-03-06T06:25:57.719Z,33.74
2023-03-06T06:29:57.897Z,31.60
2023-03-06T06:33:57.892Z,71.92
2023-03-06T06:37:57.999Z,36.84
2023-03-06T06:42:15.463Z,41.80
2023-03-06T06:46:18.760Z,46.98
2023-03-06T06:49:59.046Z,53.96
2023-03-06T06:53:58.068Z,52.88
2023-03-06T06:57:57.990Z,49.94
2023-03-06T07:01:58.007Z,49.65
2023-03-06T07:05:57.878Z,53.68
2023-03-06T07:09:57.898Z,55.49
2023-03-06T07:13:57.816Z,58.29
2023-03-06T07:17:57.900Z,52.58
2023-03-06T07:21:57.852Z,51.09
2023-03-06T07:25:57.906Z,52.83
2023-03-06T07:29:57.970Z,48.31
2023-03-06T07:33:58.028Z,48.45
2023-03-06T07:37:58.052Z,49.45
2023-03-06T07:41:58.112Z,56.19
2023-03-06T07:45:59.958Z,67.24
2023-03-06T07:49:58.133Z,61.53
2023-03-06T07:53:58.181Z,57.81
2023-03-06T07:57:58.269Z,52.39
2023-03-06T08:01:58.286Z,53.94
2023-03-06T08:05:58.390Z,43.32
2023-03-06T08:09:58.461Z,38.14
2023-03-06T08:13:58.525Z,36.84
2023-03-06T08:17:58.578Z,33.01
2023-03-06T08:21:58.657Z,33.39
2023-03-06T08:25:58.716Z,31.35
2023-03-06T08:29:58.746Z,31.43
2023-03-06T08:33:58.946Z,11.87
2023-03-06T08:37:58.989Z,59.63
2023-03-06T08:41:59.495Z,49.00
2023-03-06T08:45:58.919Z,46.77
2023-03-06T08:50:00.598Z,50.43
2023-03-06T08:57:12.802Z,25.00
2023-03-06T09:01:12.807Z,30.42
2023-03-06T09:05:12.758Z,33.83
2023-03-06T09:09:12.708Z,35.27
2023-03-06T09:13:12.665Z,38.81
2023-03-06T09:17:12.633Z,30.44
2023-03-06T09:21:12.550Z,47.07
2023-03-06T09:25:12.536Z,19.82
2023-03-06T09:29:12.562Z,35.76
2023-03-06T09:33:12.474Z,23.33
2023-03-06T09:37:12.435Z,26.25
2023-03-06T09:41:12.869Z,25.00
2023-03-06T09:45:12.391Z,39.99
2023-03-06T09:49:12.855Z,36.60
2023-03-06T09:53:12.254Z,52.94
2023-03-06T09:57:12.248Z,85.94
2023-03-06T10:01:12.176Z,92.13
2023-03-06T10:05:12.954Z,145.94
2023-03-06T10:09:12.844Z,167.29
2023-03-06T10:13:12.669Z,165.97
2023-03-06T10:17:12.827Z,166.13
2023-03-06T10:21:19.125Z,171.98
2023-03-06T10:25:13.878Z,173.93
2023-03-06T10:29:12.851Z,250.00
2023-03-06T10:33:12.873Z,211.51
2023-03-06T10:37:12.881Z,214.96
2023-03-06T10:41:12.826Z,247.38
2023-03-06T10:45:12.803Z,220.02
2023-03-06T10:49:12.760Z,218.05
2023-03-06T10:53:12.687Z,212.09
2023-03-06T10:57:12.646Z,219.94
2023-03-06T11:01:12.649Z,218.02
2023-03-06T11:05:12.605Z,217.89
2023-03-06T11:09:23.268Z,222.90
2023-03-06T11:13:12.559Z,219.81
2023-03-06T11:17:12.478Z,222.94
2023-03-06T11:21:12.474Z,225.29
2023-03-06T11:25:12.544Z,133.39
2023-03-06T11:29:14.187Z,131.16
2023-03-06T11:33:20.466Z,108.02
2023-03-06T11:37:12.411Z,71.10
2023-03-06T11:41:12.394Z,101.98
2023-03-06T11:45:12.358Z,119.45
2023-03-06T11:49:12.520Z,142.32
2023-03-06T11:53:12.682Z,168.09
2023-03-06T11:57:12.745Z,147.28
2023-03-06T12:01:12.778Z,160.42
2023-03-06T12:05:12.844Z,186.35
2023-03-06T12:09:12.996Z,193.04
2023-03-06T12:13:13.340Z,200.30
2023-03-06T12:17:13.411Z,192.07
2023-03-06T12:21:13.587Z,200.11
2023-03-06T12:25:13.828Z,189.36
2023-03-06T12:29:13.985Z,199.40
2023-03-06T12:33:14.232Z,194.53
2023-03-06T12:37:14.197Z,190.03
2023-03-06T12:41:14.146Z,183.63
2023-03-06T12:45:14.080Z,184.24
2023-03-06T12:49:23.027Z,177.05
2023-03-06T12:53:15.064Z,165.97
2023-03-06T12:57:13.976Z,164.65
2023-03-06T13:01:14.020Z,151.27
2023-03-06T13:05:14.516Z,146.99
2023-03-06T13:09:14.256Z,181.70
2023-03-06T13:13:14.286Z,187.73
2023-03-06T13:17:14.473Z,199.46
2023-03-06T13:21:14.441Z,202.57
2023-03-06T13:25:14.377Z,192.29
2023-03-06T13:29:14.296Z,181.89
2023-03-06T13:33:14.326Z,173.65
2023-03-06T13:37:14.273Z,174.28
2023-03-06T13:41:14.475Z,109.11
2023-03-06T13:45:14.256Z,40.95
2023-03-06T13:49:14.183Z,102.18
2023-03-06T13:53:14.155Z,117.95
2023-03-06T13:57:14.067Z,130.72
2023-03-06T14:01:14.102Z,170.22
2023-03-06T14:05:14.047Z,101.72
2023-03-06T14:09:14.013Z,98.31
2023-03-06T14:13:13.935Z,160.00
2023-03-06T14:17:13.889Z,181.64
2023-03-06T14:21:13.833Z,188.99
2023-03-06T14:25:14.123Z,191.00
2023-03-06T14:29:14.243Z,192.37
2023-03-06T14:33:14.312Z,204.18
2023-03-06T14:37:14.394Z,207.18
2023-03-06T14:41:14.428Z,220.59
2023-03-06T14:45:14.409Z,223.33
2023-03-06T14:49:14.414Z,228.27
2023-03-06T14:53:14.368Z,218.18
2023-03-06T14:57:14.372Z,217.49
2023-03-06T15:01:14.372Z,200.72
2023-03-06T15:05:15.015Z,200.78
2023-03-06T15:09:14.425Z,197.65
2023-03-06T15:13:14.488Z,187.86
2023-03-06T15:17:14.509Z,189.19
2023-03-06T15:21:14.598Z,182.16
2023-03-06T15:25:14.625Z,184.93
2023-03-06T15:29:14.682Z,196.25
2023-03-06T15:33:14.777Z,191.51
2023-03-06T15:37:14.928Z,197.95
2023-03-06T15:41:14.894Z,203.00
2023-03-06T15:45:15.024Z,200.08
2023-03-06T15:49:15.052Z,198.65
2023-03-06T15:53:15.120Z,205.65
2023-03-06T15:57:15.260Z,203.88
2023-03-06T16:01:15.340Z,208.88
2023-03-06T16:05:15.353Z,209.07
2023-03-06T16:09:15.446Z,209.06
2023-03-06T16:13:15.563Z,210.51
2023-03-06T16:17:15.693Z,214.85
2023-03-06T16:21:15.771Z,213.32
2023-03-06T16:25:15.855Z,210.18
2023-03-06T16:29:15.938Z,213.89
2023-03-06T16:33:16.108Z,219.17
2023-03-06T16:37:16.237Z,218.13
2023-03-06T16:41:16.302Z,217.01
2023-03-06T16:45:16.443Z,222.31
2023-03-06T16:49:16.617Z,217.71
2023-03-06T16:53:16.771Z,223.69
2023-03-06T16:57:16.894Z,220.46
2023-03-06T17:01:17.088Z,218.85
2023-03-06T17:05:17.257Z,221.18
2023-03-06T17:09:17.391Z,217.73
2023-03-06T17:13:17.557Z,220.30
2023-03-06T17:17:17.749Z,217.07
2023-03-06T17:21:17.876Z,220.47
2023-03-06T17:25:18.058Z,220.51
2023-03-06T17:29:18.261Z,219.61
2023-03-06T17:33:18.413Z,219.58
2023-03-06T17:37:18.662Z,217.43
2023-03-06T17:41:18.774Z,217.44
2023-03-06T17:45:18.969Z,217.94
2023-03-06T17:49:19.191Z,217.40
2023-03-06T17:53:19.319Z,219.54
2023-03-06T17:57:19.551Z,218.64
2023-03-06T18:01:19.839Z,222.73
2023-03-06T18:05:20.013Z,220.89
2023-03-06T18:09:20.247Z,220.70
2023-03-06T18:13:20.428Z,219.14
2023-03-06T18:17:20.654Z,223.41
2023-03-06T18:21:20.840Z,221.64
2023-03-06T18:25:20.870Z,221.29
2023-03-06T18:29:20.794Z,224.20
2023-03-06T18:33:20.762Z,225.73
2023-03-06T18:37:20.794Z,222.83
2023-03-06T18:41:20.671Z,224.88
2023-03-06T18:45:20.652Z,224.19
2023-03-06T18:49:20.620Z,228.43
2023-03-06T18:53:20.559Z,239.72
2023-03-06T18:57:20.513Z,245.46
2023-03-06T19:01:20.629Z,241.44
2023-03-06T19:05:20.597Z,225.19
2023-03-06T19:09:20.556Z,215.68
2023-03-06T19:13:20.499Z,213.17
2023-03-06T19:17:20.466Z,198.93
2023-03-06T19:21:20.453Z,190.33
2023-03-06T19:25:20.438Z,189.30
2023-03-06T19:29:20.429Z,180.13
2023-03-06T19:33:20.322Z,183.61
2023-03-06T19:37:20.310Z,184.06
2023-03-06T19:41:20.276Z,184.35
2023-03-06T19:45:20.237Z,187.79
2023-03-06T19:49:20.145Z,186.10
2023-03-06T19:53:20.139Z,187.51
2023-03-06T19:57:20.140Z,192.99
2023-03-06T20:01:20.144Z,195.46
2023-03-06T20:05:20.051Z,195.15
2023-03-06T20:09:19.982Z,196.30
2023-03-06T20:13:19.969Z,195.24
2023-03-06T20:17:19.932Z,196.92
2023-03-06T20:21:19.886Z,197.35
2023-03-06T20:25:19.864Z,197.10
2023-03-06T20:29:19.913Z,196.78
2023-03-06T20:33:19.894Z,195.56
2023-03-06T20:37:19.923Z,196.84
2023-03-06T20:41:19.881Z,197.58
2023-03-06T20:45:19.975Z,197.48
2023-03-06T20:49:19.966Z,199.50
2023-03-06T20:53:19.989Z,200.65
2023-03-06T20:57:19.960Z,201.62
2023-03-06T21:01:20.066Z,199.19
2023-03-06T21:05:20.017Z,198.16
2023-03-06T21:09:20.077Z,198.91
2023-03-06T21:13:20.015Z,199.77
2023-03-06T21:17:20.094Z,196.15
2023-03-06T21:21:20.133Z,197.32
2023-03-06T21:25:20.164Z,200.03
2023-03-06T21:29:20.121Z,198.51
2023-03-06T21:33:20.108Z,196.69
2023-03-06T21:37:20.128Z,194.42
2023-03-06T21:41:20.112Z,194.59
2023-03-06T21:45:20.135Z,198.17
2023-03-06T21:49:20.113Z,190.38
2023-03-06T21:53:20.081Z,191.08
2023-03-06T21:57:20.096Z,194.94
2023-03-06T22:01:20.250Z,191.89
2023-03-06T22:05:20.148Z,189.27
2023-03-06T22:09:20.240Z,189.90
2023-03-06T22:13:20.178Z,188.87
2023-03-06T22:17:20.217Z,190.66
2023-03-06T22:21:20.230Z,187.20
2023-03-06T22:25:20.264Z,188.41
2023-03-06T22:29:20.281Z,188.58
2023-03-06T22:33:20.357Z,187.13
2023-03-06T22:37:20.366Z,187.73
2023-03-06T22:41:20.463Z,183.04
2023-03-06T22:45:20.600Z,182.53
2023-03-06T22:49:20.547Z,187.07
2023-03-06T22:53:20.636Z,183.08
2023-03-06T22:57:20.675Z,183.85
2023-03-06T23:01:20.973Z,182.62
2023-03-06T23:05:20.943Z,184.20
2023-03-06T23:09:20.969Z,182.07
2023-03-06T23:13:21.098Z,181.14
2023-03-06T23:17:21.006Z,182.97
2023-03-06T23:21:21.046Z,181.92
2023-03-06T23:25:21.026Z,181.95
2023-03-06T23:29:21.103Z,177.05
2023-03-06T23:33:21.175Z,174.69
2023-03-06T23:37:21.149Z,179.07
2023-03-06T23:41:21.163Z,179.22
2023-03-06T23:45:21.262Z,173.67
2023-03-06T23:49:22.033Z,176.17
2023-03-06T23:53:21.273Z,175.83
2023-03-06T23:57:21.297Z,173.57
